sensor_id;sensor_type;location;lat;lon;timestamp;temperature;humidity
8939;DHT22;4504;48.810;9.172;2023-04-08T00:00:06;8.20;99.90
8939;DHT22;4504;48.810;9.172;2023-04-08T00:02:35;8.20;99.90
8939;DHT22;4504;48.810;9.172;2023-04-08T00:05:03;8.20;99.90
8939;DHT22;4504;48.810;9.172;2023-04-08T00:07:30;8.20;99.90
8939;DHT22;4504;48.810;9.172;2023-04-08T00:09:57;8.20;99.90
8939;DHT22;4504;48.810;9.172;2023-04-08T00:12:25;8.30;99.90
8939;DHT22;4504;48.810;9.172;2023-04-08T00:14:52;8.30;99.90
8939;DHT22;4504;48.810;9.172;2023-04-08T00:17:19;8.20;99.90
8939;DHT22;4504;48.810;9.172;2023-04-08T00:19:46;8.20;99.90
8939;DHT22;4504;48.810;9.172;2023-04-08T00:22:13;8.20;99.90
8939;DHT22;4504;48.810;9.172;2023-04-08T00:24:40;8.20;99.90
8939;DHT22;4504;48.810;9.172;2023-04-08T00:27:07;8.20;99.90
8939;DHT22;4504;48.810;9.172;2023-04-08T00:29:36;8.20;99.90
8939;DHT22;4504;48.810;9.172;2023-04-08T00:32:03;8.10;99.90
8939;DHT22;4504;48.810;9.172;2023-04-08T00:34:30;8.10;99.90
8939;DHT22;4504;48.810;9.172;2023-04-08T00:36:57;8.10;99.90
8939;DHT22;4504;48.810;9.172;2023-04-08T00:39:25;8.10;99.90
8939;DHT22;4504;48.810;9.172;2023-04-08T00:41:53;8.10;99.90
8939;DHT22;4504;48.810;9.172;2023-04-08T00:44:20;8.10;99.90
8939;DHT22;4504;48.810;9.172;2023-04-08T00:46:49;8.10;99.90
8939;DHT22;4504;48.810;9.172;2023-04-08T00:49:16;8.10;99.90
8939;DHT22;4504;48.810;9.172;2023-04-08T00:51:43;8.10;99.90
8939;DHT22;4504;48.810;9.172;2023-04-08T00:54:10;8.10;99.90
8939;DHT22;4504;48.810;9.172;2023-04-08T00:56:37;8.10;99.90
8939;DHT22;4504;48.810;9.172;2023-04-08T00:59:05;8.10;99.90
8939;DHT22;4504;48.810;9.172;2023-04-08T01:01:37;8.10;99.90
8939;DHT22;4504;48.810;9.172;2023-04-08T01:04:15;8.10;99.90
8939;DHT22;4504;48.810;9.172;2023-04-08T01:06:50;8.10;99.90
8939;DHT22;4504;48.810;9.172;2023-04-08T01:09:20;8.10;99.90
8939;DHT22;4504;48.810;9.172;2023-04-08T01:11:49;8.10;99.90
8939;DHT22;4504;48.810;9.172;2023-04-08T01:14:20;8.10;99.90
8939;DHT22;4504;48.810;9.172;2023-04-08T01:16:47;8.10;99.90
8939;DHT22;4504;48.810;9.172;2023-04-08T01:19:24;8.00;99.90
8939;DHT22;4504;48.810;9.172;2023-04-08T01:21:53;8.00;99.90
8939;DHT22;4504;48.810;9.172;2023-04-08T01:24:25;8.00;99.90
8939;DHT22;4504;48.810;9.172;2023-04-08T01:26:57;8.00;99.90
8939;DHT22;4504;48.810;9.172;2023-04-08T01:29:27;8.00;99.90
8939;DHT22;4504;48.810;9.172;2023-04-08T01:31:56;8.00;99.90
8939;DHT22;4504;48.810;9.172;2023-04-08T01:34:26;8.00;99.90
8939;DHT22;4504;48.810;9.172;2023-04-08T01:36:55;7.90;99.90
8939;DHT22;4504;48.810;9.172;2023-04-08T01:39:24;8.00;99.90
8939;DHT22;4504;48.810;9.172;2023-04-08T01:41:53;8.00;99.90
8939;DHT22;4504;48.810;9.172;2023-04-08T01:44:25;8.00;99.90
8939;DHT22;4504;48.810;9.172;2023-04-08T01:46:54;7.90;99.90
8939;DHT22;4504;48.810;9.172;2023-04-08T01:49:23;7.90;99.90
8939;DHT22;4504;48.810;9.172;2023-04-08T01:51:51;7.90;99.90
8939;DHT22;4504;48.810;9.172;2023-04-08T01:54:19;7.90;99.90
8939;DHT22;4504;48.810;9.172;2023-04-08T01:56:46;7.90;99.90
8939;DHT22;4504;48.810;9.172;2023-04-08T01:59:16;7.90;99.90
8939;DHT22;4504;48.810;9.172;2023-04-08T02:01:46;7.80;99.90
8939;DHT22;4504;48.810;9.172;2023-04-08T02:04:13;7.80;99.90
8939;DHT22;4504;48.810;9.172;2023-04-08T02:06:40;7.80;99.90
8939;DHT22;4504;48.810;9.172;2023-04-08T02:09:07;7.80;99.90
8939;DHT22;4504;48.810;9.172;2023-04-08T02:11:34;7.80;99.90
8939;DHT22;4504;48.810;9.172;2023-04-08T02:14:02;7.80;99.90
8939;DHT22;4504;48.810;9.172;2023-04-08T02:16:31;7.80;99.90
8939;DHT22;4504;48.810;9.172;2023-04-08T02:19:07;7.80;99.90
8939;DHT22;4504;48.810;9.172;2023-04-08T02:21:40;7.80;99.90
8939;DHT22;4504;48.810;9.172;2023-04-08T02:24:12;7.80;99.90
8939;DHT22;4504;48.810;9.172;2023-04-08T02:26:42;7.80;99.90
8939;DHT22;4504;48.810;9.172;2023-04-08T02:29:11;7.80;99.90
8939;DHT22;4504;48.810;9.172;2023-04-08T02:31:41;7.80;99.90
8939;DHT22;4504;48.810;9.172;2023-04-08T02:34:10;7.70;99.90
8939;DHT22;4504;48.810;9.172;2023-04-08T02:36:38;7.70;99.90
8939;DHT22;4504;48.810;9.172;2023-04-08T02:39:07;7.70;99.90
8939;DHT22;4504;48.810;9.172;2023-04-08T02:41:34;7.70;99.90
8939;DHT22;4504;48.810;9.172;2023-04-08T02:44:01;7.70;99.90
8939;DHT22;4504;48.810;9.172;2023-04-08T02:46:29;7.70;99.90
8939;DHT22;4504;48.810;9.172;2023-04-08T02:48:56;7.70;99.90
8939;DHT22;4504;48.810;9.172;2023-04-08T02:51:24;7.60;99.90
8939;DHT22;4504;48.810;9.172;2023-04-08T02:53:52;7.60;99.90
8939;DHT22;4504;48.810;9.172;2023-04-08T02:56:20;7.60;99.90
8939;DHT22;4504;48.810;9.172;2023-04-08T02:58:47;7.60;99.90
8939;DHT22;4504;48.810;9.172;2023-04-08T03:01:14;7.60;99.90
8939;DHT22;4504;48.810;9.172;2023-04-08T03:03:41;7.60;99.90
8939;DHT22;4504;48.810;9.172;2023-04-08T03:06:08;7.60;99.90
8939;DHT22;4504;48.810;9.172;2023-04-08T03:08:36;7.60;99.90
8939;DHT22;4504;48.810;9.172;2023-04-08T03:11:03;7.60;99.90
8939;DHT22;4504;48.810;9.172;2023-04-08T03:13:30;7.60;99.90
8939;DHT22;4504;48.810;9.172;2023-04-08T03:15:57;7.60;99.90
8939;DHT22;4504;48.810;9.172;2023-04-08T03:18:24;7.60;99.90
8939;DHT22;4504;48.810;9.172;2023-04-08T03:20:51;7.50;99.90
8939;DHT22;4504;48.810;9.172;2023-04-08T03:23:18;7.50;99.90
8939;DHT22;4504;48.810;9.172;2023-04-08T03:25:46;7.60;99.90
8939;DHT22;4504;48.810;9.172;2023-04-08T03:28:13;7.50;99.90
8939;DHT22;4504;48.810;9.172;2023-04-08T03:30:40;7.50;99.90
8939;DHT22;4504;48.810;9.172;2023-04-08T03:33:07;7.50;99.90
8939;DHT22;4504;48.810;9.172;2023-04-08T03:35:34;7.50;99.90
8939;DHT22;4504;48.810;9.172;2023-04-08T03:38:02;7.50;99.90
8939;DHT22;4504;48.810;9.172;2023-04-08T03:40:29;7.60;99.90
8939;DHT22;4504;48.810;9.172;2023-04-08T03:42:57;7.50;99.90
8939;DHT22;4504;48.810;9.172;2023-04-08T03:45:24;7.50;99.90
8939;DHT22;4504;48.810;9.172;2023-04-08T03:47:51;7.50;99.90
8939;DHT22;4504;48.810;9.172;2023-04-08T03:50:18;7.50;99.90
8939;DHT22;4504;48.810;9.172;2023-04-08T03:52:45;7.50;99.90
8939;DHT22;4504;48.810;9.172;2023-04-08T03:55:12;7.50;99.90
8939;DHT22;4504;48.810;9.172;2023-04-08T03:57:39;7.50;99.90
8939;DHT22;4504;48.810;9.172;2023-04-08T04:00:09;7.40;99.90
8939;DHT22;4504;48.810;9.172;2023-04-08T04:02:39;7.40;99.90
8939;DHT22;4504;48.810;9.172;2023-04-08T04:05:06;7.50;99.90
8939;DHT22;4504;48.810;9.172;2023-04-08T04:07:34;7.50;99.90
8939;DHT22;4504;48.810;9.172;2023-04-08T04:10:01;7.50;99.90
8939;DHT22;4504;48.810;9.172;2023-04-08T04:12:28;7.50;99.90
8939;DHT22;4504;48.810;9.172;2023-04-08T04:14:55;7.50;99.90
8939;DHT22;4504;48.810;9.172;2023-04-08T04:17:23;7.50;99.90
8939;DHT22;4504;48.810;9.172;2023-04-08T04:19:50;7.50;99.90
8939;DHT22;4504;48.810;9.172;2023-04-08T04:22:17;7.40;99.90
8939;DHT22;4504;48.810;9.172;2023-04-08T04:24:46;7.40;99.90
8939;DHT22;4504;48.810;9.172;2023-04-08T04:27:13;7.40;99.90
8939;DHT22;4504;48.810;9.172;2023-04-08T04:29:42;7.40;99.90
8939;DHT22;4504;48.810;9.172;2023-04-08T04:32:09;7.30;99.90
8939;DHT22;4504;48.810;9.172;2023-04-08T04:34:37;7.30;99.90
8939;DHT22;4504;48.810;9.172;2023-04-08T04:37:04;7.20;99.90
8939;DHT22;4504;48.810;9.172;2023-04-08T04:39:31;7.20;99.90
8939;DHT22;4504;48.810;9.172;2023-04-08T04:41:58;7.20;99.90
8939;DHT22;4504;48.810;9.172;2023-04-08T04:44:25;7.20;99.90
8939;DHT22;4504;48.810;9.172;2023-04-08T04:46:52;7.10;99.90
8939;DHT22;4504;48.810;9.172;2023-04-08T04:49:19;7.10;99.90
8939;DHT22;4504;48.810;9.172;2023-04-08T04:51:47;7.10;99.90
8939;DHT22;4504;48.810;9.172;2023-04-08T04:54:14;7.10;99.90
8939;DHT22;4504;48.810;9.172;2023-04-08T04:56:41;7.10;99.90
8939;DHT22;4504;48.810;9.172;2023-04-08T04:59:08;7.00;99.90
8939;DHT22;4504;48.810;9.172;2023-04-08T05:01:35;7.00;99.90
8939;DHT22;4504;48.810;9.172;2023-04-08T05:04:02;7.00;99.90
8939;DHT22;4504;48.810;9.172;2023-04-08T05:06:29;7.00;99.90
8939;DHT22;4504;48.810;9.172;2023-04-08T05:08:57;7.00;99.90
8939;DHT22;4504;48.810;9.172;2023-04-08T05:11:24;7.00;99.90
8939;DHT22;4504;48.810;9.172;2023-04-08T05:13:51;7.00;99.90
8939;DHT22;4504;48.810;9.172;2023-04-08T05:16:18;7.00;99.90
8939;DHT22;4504;48.810;9.172;2023-04-08T05:18:45;7.10;99.90
8939;DHT22;4504;48.810;9.172;2023-04-08T05:21:12;7.00;99.90
8939;DHT22;4504;48.810;9.172;2023-04-08T05:23:39;7.00;99.90
8939;DHT22;4504;48.810;9.172;2023-04-08T05:26:07;7.00;99.90
8939;DHT22;4504;48.810;9.172;2023-04-08T05:28:34;7.00;99.90
8939;DHT22;4504;48.810;9.172;2023-04-08T05:31:01;7.00;99.90
8939;DHT22;4504;48.810;9.172;2023-04-08T05:33:28;7.00;99.90
8939;DHT22;4504;48.810;9.172;2023-04-08T05:35:55;7.00;99.90
8939;DHT22;4504;48.810;9.172;2023-04-08T05:38:22;7.10;99.90
8939;DHT22;4504;48.810;9.172;2023-04-08T05:40:49;7.10;99.90
8939;DHT22;4504;48.810;9.172;2023-04-08T05:43:17;7.10;99.90
8939;DHT22;4504;48.810;9.172;2023-04-08T05:45:45;7.10;99.90
8939;DHT22;4504;48.810;9.172;2023-04-08T05:48:11;7.10;99.90
8939;DHT22;4504;48.810;9.172;2023-04-08T05:50:38;7.10;99.90
8939;DHT22;4504;48.810;9.172;2023-04-08T05:53:05;7.10;99.90
8939;DHT22;4504;48.810;9.172;2023-04-08T05:55:32;7.20;99.90
8939;DHT22;4504;48.810;9.172;2023-04-08T05:57:59;7.20;99.90
8939;DHT22;4504;48.810;9.172;2023-04-08T06:00:28;7.20;99.90
8939;DHT22;4504;48.810;9.172;2023-04-08T06:02:55;7.20;99.90
8939;DHT22;4504;48.810;9.172;2023-04-08T06:05:22;7.20;99.90
8939;DHT22;4504;48.810;9.172;2023-04-08T06:07:49;7.20;99.90
8939;DHT22;4504;48.810;9.172;2023-04-08T06:10:16;7.20;99.90
8939;DHT22;4504;48.810;9.172;2023-04-08T06:12:42;7.20;99.90
8939;DHT22;4504;48.810;9.172;2023-04-08T06:15:10;7.20;99.90
8939;DHT22;4504;48.810;9.172;2023-04-08T06:17:38;7.20;99.90
8939;DHT22;4504;48.810;9.172;2023-04-08T06:20:06;7.20;99.90
8939;DHT22;4504;48.810;9.172;2023-04-08T06:22:33;7.30;99.90
8939;DHT22;4504;48.810;9.172;2023-04-08T06:25:01;7.40;99.90
8939;DHT22;4504;48.810;9.172;2023-04-08T06:27:28;7.40;99.90
8939;DHT22;4504;48.810;9.172;2023-04-08T06:29:55;7.40;99.90
8939;DHT22;4504;48.810;9.172;2023-04-08T06:32:22;7.40;99.90
8939;DHT22;4504;48.810;9.172;2023-04-08T06:34:50;7.30;99.90
8939;DHT22;4504;48.810;9.172;2023-04-08T06:37:17;7.30;99.90
8939;DHT22;4504;48.810;9.172;2023-04-08T06:39:44;7.40;99.90
8939;DHT22;4504;48.810;9.172;2023-04-08T06:42:11;7.50;99.90
8939;DHT22;4504;48.810;9.172;2023-04-08T06:44:53;7.50;99.90
8939;DHT22;4504;48.810;9.172;2023-04-08T06:47:20;7.60;99.90
8939;DHT22;4504;48.810;9.172;2023-04-08T06:49:47;7.60;99.90
8939;DHT22;4504;48.810;9.172;2023-04-08T06:52:15;7.60;99.90
8939;DHT22;4504;48.810;9.172;2023-04-08T06:54:42;7.60;99.90
8939;DHT22;4504;48.810;9.172;2023-04-08T06:57:09;7.70;99.90
8939;DHT22;4504;48.810;9.172;2023-04-08T06:59:36;7.70;99.90
8939;DHT22;4504;48.810;9.172;2023-04-08T07:02:03;7.80;99.90
8939;DHT22;4504;48.810;9.172;2023-04-08T07:04:30;7.70;99.90
8939;DHT22;4504;48.810;9.172;2023-04-08T07:06:57;7.80;99.90
8939;DHT22;4504;48.810;9.172;2023-04-08T07:09:25;7.80;99.90
8939;DHT22;4504;48.810;9.172;2023-04-08T07:11:52;7.80;99.90
8939;DHT22;4504;48.810;9.172;2023-04-08T07:14:19;7.90;99.90
8939;DHT22;4504;48.810;9.172;2023-04-08T07:16:46;7.90;99.90
8939;DHT22;4504;48.810;9.172;2023-04-08T07:19:13;7.90;99.90
8939;DHT22;4504;48.810;9.172;2023-04-08T07:21:40;7.90;99.90
8939;DHT22;4504;48.810;9.172;2023-04-08T07:24:07;8.00;99.90
8939;DHT22;4504;48.810;9.172;2023-04-08T07:26:36;8.00;99.90
8939;DHT22;4504;48.810;9.172;2023-04-08T07:29:03;8.10;99.90
8939;DHT22;4504;48.810;9.172;2023-04-08T07:31:30;8.00;99.90
8939;DHT22;4504;48.810;9.172;2023-04-08T07:33:57;8.20;99.90
8939;DHT22;4504;48.810;9.172;2023-04-08T07:36:24;8.30;99.90
8939;DHT22;4504;48.810;9.172;2023-04-08T07:38:51;8.40;99.90
8939;DHT22;4504;48.810;9.172;2023-04-08T07:41:18;8.50;99.90
8939;DHT22;4504;48.810;9.172;2023-04-08T07:43:47;8.60;99.90
8939;DHT22;4504;48.810;9.172;2023-04-08T07:46:14;8.60;99.90
8939;DHT22;4504;48.810;9.172;2023-04-08T07:48:41;8.70;99.90
8939;DHT22;4504;48.810;9.172;2023-04-08T07:51:08;8.80;99.90
8939;DHT22;4504;48.810;9.172;2023-04-08T07:53:35;8.90;99.90
8939;DHT22;4504;48.810;9.172;2023-04-08T07:56:02;9.10;99.90
8939;DHT22;4504;48.810;9.172;2023-04-08T07:58:29;9.20;99.90
8939;DHT22;4504;48.810;9.172;2023-04-08T08:00:58;9.20;99.90
8939;DHT22;4504;48.810;9.172;2023-04-08T08:03:25;9.20;99.90
8939;DHT22;4504;48.810;9.172;2023-04-08T08:05:52;9.10;99.90
8939;DHT22;4504;48.810;9.172;2023-04-08T08:08:19;9.10;99.90
8939;DHT22;4504;48.810;9.172;2023-04-08T08:10:46;9.10;99.90
8939;DHT22;4504;48.810;9.172;2023-04-08T08:13:13;9.40;99.90
8939;DHT22;4504;48.810;9.172;2023-04-08T08:15:42;9.50;99.90
8939;DHT22;4504;48.810;9.172;2023-04-08T08:18:10;9.30;99.90
8939;DHT22;4504;48.810;9.172;2023-04-08T08:20:37;9.30;99.90
8939;DHT22;4504;48.810;9.172;2023-04-08T08:23:04;9.50;99.90
8939;DHT22;4504;48.810;9.172;2023-04-08T08:25:31;9.20;99.90
8939;DHT22;4504;48.810;9.172;2023-04-08T08:27:57;9.10;99.90
8939;DHT22;4504;48.810;9.172;2023-04-08T08:30:24;9.20;99.90
8939;DHT22;4504;48.810;9.172;2023-04-08T08:32:52;9.30;99.90
8939;DHT22;4504;48.810;9.172;2023-04-08T08:35:20;9.20;99.90
8939;DHT22;4504;48.810;9.172;2023-04-08T08:37:47;9.20;99.90
8939;DHT22;4504;48.810;9.172;2023-04-08T08:40:14;9.20;99.90
8939;DHT22;4504;48.810;9.172;2023-04-08T08:42:42;9.30;99.90
8939;DHT22;4504;48.810;9.172;2023-04-08T08:45:15;9.40;99.90
8939;DHT22;4504;48.810;9.172;2023-04-08T08:47:42;9.40;99.90
8939;DHT22;4504;48.810;9.172;2023-04-08T08:50:09;9.50;99.90
8939;DHT22;4504;48.810;9.172;2023-04-08T08:52:38;9.50;99.90
8939;DHT22;4504;48.810;9.172;2023-04-08T08:55:06;9.60;99.90
8939;DHT22;4504;48.810;9.172;2023-04-08T08:57:33;9.90;99.90
8939;DHT22;4504;48.810;9.172;2023-04-08T09:00:00;10.00;99.90
8939;DHT22;4504;48.810;9.172;2023-04-08T09:02:28;9.90;99.90
8939;DHT22;4504;48.810;9.172;2023-04-08T09:04:57;10.00;99.90
8939;DHT22;4504;48.810;9.172;2023-04-08T09:07:25;10.00;99.90
8939;DHT22;4504;48.810;9.172;2023-04-08T09:09:54;9.90;99.90
8939;DHT22;4504;48.810;9.172;2023-04-08T09:12:22;9.80;99.90
8939;DHT22;4504;48.810;9.172;2023-04-08T09:14:50;9.70;99.90
8939;DHT22;4504;48.810;9.172;2023-04-08T09:17:31;9.70;99.90
8939;DHT22;4504;48.810;9.172;2023-04-08T09:20:06;9.90;99.90
8939;DHT22;4504;48.810;9.172;2023-04-08T09:22:56;9.90;99.90
8939;DHT22;4504;48.810;9.172;2023-04-08T09:25:25;9.70;99.90
8939;DHT22;4504;48.810;9.172;2023-04-08T09:27:53;9.90;99.90
8939;DHT22;4504;48.810;9.172;2023-04-08T09:30:22;9.90;99.90
8939;DHT22;4504;48.810;9.172;2023-04-08T09:32:50;10.30;99.90
8939;DHT22;4504;48.810;9.172;2023-04-08T09:35:19;10.70;99.90
8939;DHT22;4504;48.810;9.172;2023-04-08T09:37:47;10.80;99.90
8939;DHT22;4504;48.810;9.172;2023-04-08T09:40:14;10.80;99.90
8939;DHT22;4504;48.810;9.172;2023-04-08T09:42:45;10.50;99.90
8939;DHT22;4504;48.810;9.172;2023-04-08T09:45:15;10.40;99.90
8939;DHT22;4504;48.810;9.172;2023-04-08T09:47:51;10.50;99.90
8939;DHT22;4504;48.810;9.172;2023-04-08T09:50:25;11.00;99.90
8939;DHT22;4504;48.810;9.172;2023-04-08T09:52:58;11.10;99.90
8939;DHT22;4504;48.810;9.172;2023-04-08T09:55:29;11.20;99.90
8939;DHT22;4504;48.810;9.172;2023-04-08T09:58:04;11.00;98.90
8939;DHT22;4504;48.810;9.172;2023-04-08T10:00:37;10.90;99.20
8939;DHT22;4504;48.810;9.172;2023-04-08T10:03:10;10.60;99.70
8939;DHT22;4504;48.810;9.172;2023-04-08T10:05:43;10.80;99.90
8939;DHT22;4504;48.810;9.172;2023-04-08T10:08:10;11.20;99.90
8939;DHT22;4504;48.810;9.172;2023-04-08T10:10:39;11.40;99.00
8939;DHT22;4504;48.810;9.172;2023-04-08T10:13:08;11.30;98.70
8939;DHT22;4504;48.810;9.172;2023-04-08T10:15:36;11.40;97.90
8939;DHT22;4504;48.810;9.172;2023-04-08T10:18:30;11.80;98.10
8939;DHT22;4504;48.810;9.172;2023-04-08T10:21:01;12.20;98.00
8939;DHT22;4504;48.810;9.172;2023-04-08T10:23:54;11.90;97.10
8939;DHT22;4504;48.810;9.172;2023-04-08T10:26:31;11.60;96.30
8939;DHT22;4504;48.810;9.172;2023-04-08T10:29:33;11.10;96.80
8939;DHT22;4504;48.810;9.172;2023-04-08T10:32:01;10.80;97.90
8939;DHT22;4504;48.810;9.172;2023-04-08T10:34:28;10.70;97.70
8939;DHT22;4504;48.810;9.172;2023-04-08T10:36:56;10.50;98.00
8939;DHT22;4504;48.810;9.172;2023-04-08T10:39:26;10.60;98.30
8939;DHT22;4504;48.810;9.172;2023-04-08T10:41:53;10.80;99.00
8939;DHT22;4504;48.810;9.172;2023-04-08T10:44:21;10.80;98.70
8939;DHT22;4504;48.810;9.172;2023-04-08T10:46:50;10.90;99.10
8939;DHT22;4504;48.810;9.172;2023-04-08T10:49:18;11.20;98.30
8939;DHT22;4504;48.810;9.172;2023-04-08T10:51:46;11.20;96.90
8939;DHT22;4504;48.810;9.172;2023-04-08T10:54:14;11.10;96.10
8939;DHT22;4504;48.810;9.172;2023-04-08T10:56:47;11.00;96.20
8939;DHT22;4504;48.810;9.172;2023-04-08T10:59:15;11.20;95.80
8939;DHT22;4504;48.810;9.172;2023-04-08T11:01:43;11.10;95.20
8939;DHT22;4504;48.810;9.172;2023-04-08T11:04:13;10.90;95.40
8939;DHT22;4504;48.810;9.172;2023-04-08T11:06:42;10.90;96.00
8939;DHT22;4504;48.810;9.172;2023-04-08T11:09:09;10.90;96.90
8939;DHT22;4504;48.810;9.172;2023-04-08T11:11:37;10.90;96.80
8939;DHT22;4504;48.810;9.172;2023-04-08T11:14:04;10.70;96.20
8939;DHT22;4504;48.810;9.172;2023-04-08T11:16:32;10.80;97.40
8939;DHT22;4504;48.810;9.172;2023-04-08T11:19:01;10.90;97.50
8939;DHT22;4504;48.810;9.172;2023-04-08T11:21:30;11.00;96.60
8939;DHT22;4504;48.810;9.172;2023-04-08T11:23:57;10.90;96.70
8939;DHT22;4504;48.810;9.172;2023-04-08T11:26:25;11.00;96.60
8939;DHT22;4504;48.810;9.172;2023-04-08T11:28:53;11.10;95.40
8939;DHT22;4504;48.810;9.172;2023-04-08T11:31:22;11.30;95.60
8939;DHT22;4504;48.810;9.172;2023-04-08T11:33:52;11.30;95.60
8939;DHT22;4504;48.810;9.172;2023-04-08T11:36:19;11.30;95.60
8939;DHT22;4504;48.810;9.172;2023-04-08T11:38:48;11.30;96.10
8939;DHT22;4504;48.810;9.172;2023-04-08T11:41:15;11.20;95.70
8939;DHT22;4504;48.810;9.172;2023-04-08T11:43:53;11.10;95.60
8939;DHT22;4504;48.810;9.172;2023-04-08T11:46:20;11.00;96.20
8939;DHT22;4504;48.810;9.172;2023-04-08T11:49:02;11.20;96.20
8939;DHT22;4504;48.810;9.172;2023-04-08T11:51:29;10.70;96.00
8939;DHT22;4504;48.810;9.172;2023-04-08T11:53:57;10.50;96.70
8939;DHT22;4504;48.810;9.172;2023-04-08T11:56:24;10.60;96.90
8939;DHT22;4504;48.810;9.172;2023-04-08T11:58:52;10.60;97.20
8939;DHT22;4504;48.810;9.172;2023-04-08T12:01:19;10.60;96.70
8939;DHT22;4504;48.810;9.172;2023-04-08T12:03:57;10.80;97.10
8939;DHT22;4504;48.810;9.172;2023-04-08T12:06:24;10.90;96.90
8939;DHT22;4504;48.810;9.172;2023-04-08T12:08:53;10.80;96.80
8939;DHT22;4504;48.810;9.172;2023-04-08T12:11:22;10.70;96.70
8939;DHT22;4504;48.810;9.172;2023-04-08T12:13:49;10.90;97.10
8939;DHT22;4504;48.810;9.172;2023-04-08T12:16:17;10.80;96.50
8939;DHT22;4504;48.810;9.172;2023-04-08T12:18:44;10.80;97.20
8939;DHT22;4504;48.810;9.172;2023-04-08T12:21:11;11.00;96.70
8939;DHT22;4504;48.810;9.172;2023-04-08T12:23:38;11.10;96.90
8939;DHT22;4504;48.810;9.172;2023-04-08T12:26:05;11.30;96.40
8939;DHT22;4504;48.810;9.172;2023-04-08T12:28:34;11.00;95.90
8939;DHT22;4504;48.810;9.172;2023-04-08T12:31:01;10.80;97.10
8939;DHT22;4504;48.810;9.172;2023-04-08T12:33:28;11.00;96.90
8939;DHT22;4504;48.810;9.172;2023-04-08T12:35:56;11.10;96.50
8939;DHT22;4504;48.810;9.172;2023-04-08T12:38:23;11.20;96.70
8939;DHT22;4504;48.810;9.172;2023-04-08T12:40:51;11.30;96.90
8939;DHT22;4504;48.810;9.172;2023-04-08T12:43:18;11.30;97.00
8939;DHT22;4504;48.810;9.172;2023-04-08T12:45:47;11.30;97.30
8939;DHT22;4504;48.810;9.172;2023-04-08T12:48:14;11.20;96.70
8939;DHT22;4504;48.810;9.172;2023-04-08T12:50:41;11.00;96.50
8939;DHT22;4504;48.810;9.172;2023-04-08T12:53:08;10.80;97.00
8939;DHT22;4504;48.810;9.172;2023-04-08T12:55:35;10.70;97.20
8939;DHT22;4504;48.810;9.172;2023-04-08T12:58:02;10.90;97.40
8939;DHT22;4504;48.810;9.172;2023-04-08T13:00:30;11.10;97.90
8939;DHT22;4504;48.810;9.172;2023-04-08T13:02:58;11.30;97.20
8939;DHT22;4504;48.810;9.172;2023-04-08T13:05:25;11.50;96.80
8939;DHT22;4504;48.810;9.172;2023-04-08T13:07:52;11.40;96.40
8939;DHT22;4504;48.810;9.172;2023-04-08T13:10:19;11.20;96.40
8939;DHT22;4504;48.810;9.172;2023-04-08T13:12:46;11.10;96.50
8939;DHT22;4504;48.810;9.172;2023-04-08T13:15:13;10.70;97.00
8939;DHT22;4504;48.810;9.172;2023-04-08T13:17:40;10.60;97.30
8939;DHT22;4504;48.810;9.172;2023-04-08T13:20:10;10.30;97.70
8939;DHT22;4504;48.810;9.172;2023-04-08T13:22:37;10.40;98.20
8939;DHT22;4504;48.810;9.172;2023-04-08T13:25:06;10.70;98.50
8939;DHT22;4504;48.810;9.172;2023-04-08T13:27:33;11.00;98.60
8939;DHT22;4504;48.810;9.172;2023-04-08T13:30:00;11.30;98.50
8939;DHT22;4504;48.810;9.172;2023-04-08T13:32:27;11.50;98.20
8939;DHT22;4504;48.810;9.172;2023-04-08T13:34:54;11.40;97.60
8939;DHT22;4504;48.810;9.172;2023-04-08T13:37:22;11.30;97.40
8939;DHT22;4504;48.810;9.172;2023-04-08T13:39:49;11.40;98.10
8939;DHT22;4504;48.810;9.172;2023-04-08T13:42:16;11.70;97.60
8939;DHT22;4504;48.810;9.172;2023-04-08T13:44:43;11.70;97.50
8939;DHT22;4504;48.810;9.172;2023-04-08T13:47:10;11.70;97.30
8939;DHT22;4504;48.810;9.172;2023-04-08T13:49:37;11.60;96.80
8939;DHT22;4504;48.810;9.172;2023-04-08T13:52:04;11.00;97.10
8939;DHT22;4504;48.810;9.172;2023-04-08T13:54:32;10.90;97.90
8939;DHT22;4504;48.810;9.172;2023-04-08T13:56:59;10.70;98.10
8939;DHT22;4504;48.810;9.172;2023-04-08T13:59:26;10.60;98.60
8939;DHT22;4504;48.810;9.172;2023-04-08T14:01:53;10.60;99.20
8939;DHT22;4504;48.810;9.172;2023-04-08T14:04:21;10.90;99.50
8939;DHT22;4504;48.810;9.172;2023-04-08T14:06:48;11.20;98.90
8939;DHT22;4504;48.810;9.172;2023-04-08T14:09:18;11.30;98.50
8939;DHT22;4504;48.810;9.172;2023-04-08T14:11:46;11.50;98.40
8939;DHT22;4504;48.810;9.172;2023-04-08T14:14:13;11.50;97.50
8939;DHT22;4504;48.810;9.172;2023-04-08T14:16:40;11.20;98.10
8939;DHT22;4504;48.810;9.172;2023-04-08T14:19:07;11.50;97.90
8939;DHT22;4504;48.810;9.172;2023-04-08T14:21:34;11.30;97.70
8939;DHT22;4504;48.810;9.172;2023-04-08T14:24:02;11.60;98.00
8939;DHT22;4504;48.810;9.172;2023-04-08T14:26:29;11.50;97.60
8939;DHT22;4504;48.810;9.172;2023-04-08T14:29:02;11.40;97.80
8939;DHT22;4504;48.810;9.172;2023-04-08T14:31:29;11.50;97.50
8939;DHT22;4504;48.810;9.172;2023-04-08T14:33:56;11.10;97.50
8939;DHT22;4504;48.810;9.172;2023-04-08T14:36:23;10.90;98.70
8939;DHT22;4504;48.810;9.172;2023-04-08T14:38:50;11.20;98.80
8939;DHT22;4504;48.810;9.172;2023-04-08T14:41:17;11.50;98.50
8939;DHT22;4504;48.810;9.172;2023-04-08T14:43:44;11.50;97.30
8939;DHT22;4504;48.810;9.172;2023-04-08T14:46:13;11.60;97.60
8939;DHT22;4504;48.810;9.172;2023-04-08T14:48:40;11.70;97.40
8939;DHT22;4504;48.810;9.172;2023-04-08T14:51:07;11.40;96.70
8939;DHT22;4504;48.810;9.172;2023-04-08T14:53:34;11.00;97.30
8939;DHT22;4504;48.810;9.172;2023-04-08T14:56:01;10.90;98.00
8939;DHT22;4504;48.810;9.172;2023-04-08T14:58:28;11.10;97.90
8939;DHT22;4504;48.810;9.172;2023-04-08T15:00:55;11.00;97.20
8939;DHT22;4504;48.810;9.172;2023-04-08T15:03:23;10.90;97.40
8939;DHT22;4504;48.810;9.172;2023-04-08T15:05:57;10.90;97.80
8939;DHT22;4504;48.810;9.172;2023-04-08T15:08:24;10.90;97.40
8939;DHT22;4504;48.810;9.172;2023-04-08T15:10:51;10.70;97.30
8939;DHT22;4504;48.810;9.172;2023-04-08T15:13:18;10.70;97.60
8939;DHT22;4504;48.810;9.172;2023-04-08T15:15:45;10.80;98.20
8939;DHT22;4504;48.810;9.172;2023-04-08T15:18:12;11.00;97.60
8939;DHT22;4504;48.810;9.172;2023-04-08T15:20:40;11.20;97.70
8939;DHT22;4504;48.810;9.172;2023-04-08T15:23:07;11.30;97.50
8939;DHT22;4504;48.810;9.172;2023-04-08T15:25:34;11.20;96.90
8939;DHT22;4504;48.810;9.172;2023-04-08T15:28:01;11.20;97.70
8939;DHT22;4504;48.810;9.172;2023-04-08T15:30:28;11.40;97.70
8939;DHT22;4504;48.810;9.172;2023-04-08T15:33:01;11.50;97.40
8939;DHT22;4504;48.810;9.172;2023-04-08T15:35:28;11.50;97.50
8939;DHT22;4504;48.810;9.172;2023-04-08T15:37:56;11.40;97.50
8939;DHT22;4504;48.810;9.172;2023-04-08T15:40:23;11.30;97.70
8939;DHT22;4504;48.810;9.172;2023-04-08T15:42:50;11.30;98.30
8939;DHT22;4504;48.810;9.172;2023-04-08T15:45:17;11.20;98.50
8939;DHT22;4504;48.810;9.172;2023-04-08T15:47:45;11.30;98.70
